sensor_id;sensor_type;location;lat;lon;timestamp;pressure;altitude;pressure_sealevel;temperature;humidity
12987;BME280;58897;51.960;5.582;2023-04-16T00:01:08;101855.34;;;9.45;100.00
12987;BME280;58897;51.960;5.582;2023-04-16T00:03:35;101861.25;;;9.39;100.00
12987;BME280;58897;51.960;5.582;2023-04-16T00:06:02;101858.81;;;9.36;100.00
12987;BME280;58897;51.960;5.582;2023-04-16T00:08:29;101862.06;;;9.30;100.00
12987;BME280;58897;51.960;5.582;2023-04-16T00:10:56;101867.25;;;9.22;100.00
12987;BME280;58897;51.960;5.582;2023-04-16T00:13:23;101860.34;;;9.29;100.00
12987;BME280;58897;51.960;5.582;2023-04-16T00:15:51;101866.78;;;9.38;100.00
12987;BME280;58897;51.960;5.582;2023-04-16T00:18:18;101867.72;;;9.27;100.00
12987;BME280;58897;51.960;5.582;2023-04-16T00:20:47;101870.47;;;9.37;100.00
12987;BME280;58897;51.960;5.582;2023-04-16T00:23:14;101865.53;;;9.42;100.00
12987;BME280;58897;51.960;5.582;2023-04-16T00:25:41;101870.81;;;9.43;100.00
12987;BME280;58897;51.960;5.582;2023-04-16T00:28:08;101868.88;;;9.34;100.00
12987;BME280;58897;51.960;5.582;2023-04-16T00:30:36;101876.97;;;9.34;100.00
12987;BME280;58897;51.960;5.582;2023-04-16T00:33:03;101864.09;;;9.17;100.00
12987;BME280;58897;51.960;5.582;2023-04-16T00:35:30;101869.34;;;9.39;100.00
12987;BME280;58897;51.960;5.582;2023-04-16T00:37:56;101865.47;;;9.32;100.00
12987;BME280;58897;51.960;5.582;2023-04-16T00:40:26;101861.00;;;9.42;100.00
12987;BME280;58897;51.960;5.582;2023-04-16T00:42:54;101862.06;;;9.30;100.00
12987;BME280;58897;51.960;5.582;2023-04-16T00:45:20;101867.72;;;9.27;100.00
12987;BME280;58897;51.960;5.582;2023-04-16T00:47:48;101869.59;;;9.36;100.00
12987;BME280;58897;51.960;5.582;2023-04-16T00:50:14;101868.22;;;9.21;100.00
12987;BME280;58897;51.960;5.582;2023-04-16T00:52:41;101873.16;;;9.37;100.00
12987;BME280;58897;51.960;5.582;2023-04-16T00:55:09;101865.00;;;9.27;100.00
12987;BME280;58897;51.960;5.582;2023-04-16T00:57:38;101871.06;;;9.40;100.00
12987;BME280;58897;51.960;5.582;2023-04-16T01:00:05;101871.00;;;9.51;100.00
12987;BME280;58897;51.960;5.582;2023-04-16T01:02:32;101869.94;;;9.43;100.00
12987;BME280;58897;51.960;5.582;2023-04-16T01:05:00;101871.31;;;9.37;100.00
12987;BME280;58897;51.960;5.582;2023-04-16T01:07:27;101875.94;;;9.46;100.00
12987;BME280;58897;51.960;5.582;2023-04-16T01:09:54;101873.50;;;9.43;100.00
12987;BME280;58897;51.960;5.582;2023-04-16T01:12:21;101875.47;;;9.41;100.00
12987;BME280;58897;51.960;5.582;2023-04-16T01:14:48;101870.72;;;9.33;100.00
12987;BME280;58897;51.960;5.582;2023-04-16T01:17:15;101875.59;;;9.40;100.00
12987;BME280;58897;51.960;5.582;2023-04-16T01:19:41;101877.38;;;9.50;100.00
12987;BME280;58897;51.960;5.582;2023-04-16T01:22:08;101866.59;;;9.50;100.00
12987;BME280;58897;51.960;5.582;2023-04-16T01:24:34;101866.06;;;9.36;100.00
12987;BME280;58897;51.960;5.582;2023-04-16T01:27:01;101863.50;;;9.34;100.00
12987;BME280;58897;51.960;5.582;2023-04-16T01:29:28;101870.06;;;9.41;100.00
12987;BME280;58897;51.960;5.582;2023-04-16T01:31:55;101873.41;;;9.33;100.00
12987;BME280;58897;51.960;5.582;2023-04-16T01:34:21;101876.53;;;9.50;100.00
12987;BME280;58897;51.960;5.582;2023-04-16T01:36:48;101874.22;;;9.45;100.00
12987;BME280;58897;51.960;5.582;2023-04-16T01:39:14;101883.84;;;9.38;100.00
12987;BME280;58897;51.960;5.582;2023-04-16T01:41:41;101881.47;;;9.45;100.00
12987;BME280;58897;51.960;5.582;2023-04-16T01:44:09;101872.69;;;9.31;100.00
12987;BME280;58897;51.960;5.582;2023-04-16T01:46:36;101873.59;;;9.21;100.00
12987;BME280;58897;51.960;5.582;2023-04-16T01:49:03;101880.06;;;9.29;100.00
12987;BME280;58897;51.960;5.582;2023-04-16T01:51:30;101881.50;;;9.33;100.00
12987;BME280;58897;51.960;5.582;2023-04-16T01:53:57;101882.63;;;9.31;100.00
12987;BME280;58897;51.960;5.582;2023-04-16T01:56:24;101884.50;;;9.30;100.00
12987;BME280;58897;51.960;5.582;2023-04-16T01:58:51;101890.06;;;9.39;100.00
12987;BME280;58897;51.960;5.582;2023-04-16T02:01:18;101886.66;;;9.37;100.00
12987;BME280;58897;51.960;5.582;2023-04-16T02:03:45;101888.47;;;9.36;100.00
12987;BME280;58897;51.960;5.582;2023-04-16T02:06:12;101890.25;;;9.26;100.00
12987;BME280;58897;51.960;5.582;2023-04-16T02:08:40;101884.31;;;9.43;100.00
12987;BME280;58897;51.960;5.582;2023-04-16T02:11:07;101896.22;;;9.41;100.00
12987;BME280;58897;51.960;5.582;2023-04-16T02:13:33;101886.44;;;9.28;100.00
12987;BME280;58897;51.960;5.582;2023-04-16T02:16:00;101888.63;;;9.35;100.00
12987;BME280;58897;51.960;5.582;2023-04-16T02:18:27;101891.78;;;9.40;100.00
12987;BME280;58897;51.960;5.582;2023-04-16T02:20:56;101891.00;;;9.28;100.00
12987;BME280;58897;51.960;5.582;2023-04-16T02:23:23;101892.28;;;9.33;100.00
12987;BME280;58897;51.960;5.582;2023-04-16T02:25:50;101888.56;;;9.46;100.00
12987;BME280;58897;51.960;5.582;2023-04-16T02:28:17;101880.22;;;9.28;100.00
12987;BME280;58897;51.960;5.582;2023-04-16T02:30:43;101891.72;;;9.30;100.00
12987;BME280;58897;51.960;5.582;2023-04-16T02:33:11;101882.63;;;9.31;100.00
12987;BME280;58897;51.960;5.582;2023-04-16T02:35:38;101882.91;;;9.28;100.00
12987;BME280;58897;51.960;5.582;2023-04-16T02:38:06;101887.00;;;9.11;100.00
12987;BME280;58897;51.960;5.582;2023-04-16T02:40:32;101893.19;;;9.23;100.00
12987;BME280;58897;51.960;5.582;2023-04-16T02:42:59;101888.16;;;9.29;100.00
12987;BME280;58897;51.960;5.582;2023-04-16T02:45:26;101887.31;;;9.29;100.00
12987;BME280;58897;51.960;5.582;2023-04-16T02:47:52;101895.56;;;9.16;100.00
12987;BME280;58897;51.960;5.582;2023-04-16T02:50:19;101893.59;;;9.18;100.00
12987;BME280;58897;51.960;5.582;2023-04-16T02:52:45;101896.41;;;9.28;100.00
12987;BME280;58897;51.960;5.582;2023-04-16T02:55:12;101892.47;;;9.21;100.00
12987;BME280;58897;51.960;5.582;2023-04-16T02:57:38;101892.59;;;9.30;100.00
12987;BME280;58897;51.960;5.582;2023-04-16T03:00:06;101895.28;;;9.30;100.00
12987;BME280;58897;51.960;5.582;2023-04-16T03:02:35;101905.13;;;9.41;100.00
12987;BME280;58897;51.960;5.582;2023-04-16T03:05:02;101897.97;;;9.30;100.00
12987;BME280;58897;51.960;5.582;2023-04-16T03:07:29;101894.19;;;9.22;100.00
12987;BME280;58897;51.960;5.582;2023-04-16T03:09:56;101903.88;;;9.24;100.00
12987;BME280;58897;51.960;5.582;2023-04-16T03:12:22;101897.56;;;9.35;100.00
12987;BME280;58897;51.960;5.582;2023-04-16T03:14:52;101903.16;;;9.22;100.00
12987;BME280;58897;51.960;5.582;2023-04-16T03:17:18;101913.28;;;9.30;100.00
12987;BME280;58897;51.960;5.582;2023-04-16T03:19:45;101907.28;;;9.26;100.00
12987;BME280;58897;51.960;5.582;2023-04-16T03:22:11;101913.88;;;9.33;100.00
12987;BME280;58897;51.960;5.582;2023-04-16T03:24:38;101915.59;;;9.35;100.00
12987;BME280;58897;51.960;5.582;2023-04-16T03:27:04;101921.16;;;9.22;100.00
12987;BME280;58897;51.960;5.582;2023-04-16T03:29:31;101923.13;;;9.20;100.00
12987;BME280;58897;51.960;5.582;2023-04-16T03:31:57;101920.78;;;9.26;100.00
12987;BME280;58897;51.960;5.582;2023-04-16T03:34:24;101916.97;;;9.29;100.00
12987;BME280;58897;51.960;5.582;2023-04-16T03:36:51;101924.44;;;9.25;100.00
12987;BME280;58897;51.960;5.582;2023-04-16T03:39:18;101927.13;;;9.25;100.00
12987;BME280;58897;51.960;5.582;2023-04-16T03:41:44;101923.94;;;9.31;100.00
12987;BME280;58897;51.960;5.582;2023-04-16T03:44:11;101919.00;;;9.37;100.00
12987;BME280;58897;51.960;5.582;2023-04-16T03:46:37;101919.53;;;9.30;100.00
12987;BME280;58897;51.960;5.582;2023-04-16T03:49:04;101916.97;;;9.29;100.00
12987;BME280;58897;51.960;5.582;2023-04-16T03:51:31;101920.13;;;9.34;100.00
12987;BME280;58897;51.960;5.582;2023-04-16T03:53:58;101924.94;;;9.30;100.00
12987;BME280;58897;51.960;5.582;2023-04-16T03:56:24;101922.28;;;9.19;100.00
12987;BME280;58897;51.960;5.582;2023-04-16T03:58:51;101923.34;;;9.28;100.00
12987;BME280;58897;51.960;5.582;2023-04-16T04:01:17;101929.34;;;9.20;100.00
12987;BME280;58897;51.960;5.582;2023-04-16T04:03:44;101924.53;;;9.35;100.00
12987;BME280;58897;51.960;5.582;2023-04-16T04:06:11;101925.44;;;9.24;100.00
12987;BME280;58897;51.960;5.582;2023-04-16T04:08:38;101924.38;;;9.16;100.00
12987;BME280;58897;51.960;5.582;2023-04-16T04:11:04;101928.59;;;9.29;100.00
12987;BME280;58897;51.960;5.582;2023-04-16T04:13:31;101925.50;;;9.34;100.00
12987;BME280;58897;51.960;5.582;2023-04-16T04:15:57;101927.75;;;9.29;100.00
12987;BME280;58897;51.960;5.582;2023-04-16T04:18:24;101932.53;;;9.25;100.00
12987;BME280;58897;51.960;5.582;2023-04-16T04:20:51;101929.25;;;9.22;100.00
12987;BME280;58897;51.960;5.582;2023-04-16T04:23:17;101933.78;;;9.21;100.00
12987;BME280;58897;51.960;5.582;2023-04-16T04:25:44;101924.50;;;9.14;100.00
12987;BME280;58897;51.960;5.582;2023-04-16T04:28:10;101933.94;;;9.20;100.00
12987;BME280;58897;51.960;5.582;2023-04-16T04:30:37;101934.03;;;9.18;100.00
12987;BME280;58897;51.960;5.582;2023-04-16T04:33:03;101933.75;;;9.32;100.00
12987;BME280;58897;51.960;5.582;2023-04-16T04:35:30;101940.16;;;9.20;100.00
12987;BME280;58897;51.960;5.582;2023-04-16T04:37:56;101944.44;;;9.23;100.00
12987;BME280;58897;51.960;5.582;2023-04-16T04:40:22;101952.00;;;9.29;100.00
12987;BME280;58897;51.960;5.582;2023-04-16T04:42:49;101949.63;;;9.15;100.00
12987;BME280;58897;51.960;5.582;2023-04-16T04:45:15;101952.47;;;9.02;100.00
12987;BME280;58897;51.960;5.582;2023-04-16T04:47:42;101953.28;;;9.14;100.00
12987;BME280;58897;51.960;5.582;2023-04-16T04:50:09;101958.91;;;9.22;100.00
12987;BME280;58897;51.960;5.582;2023-04-16T04:52:36;101958.66;;;9.25;100.00
12987;BME280;58897;51.960;5.582;2023-04-16T04:55:02;101959.56;;;9.14;100.00
12987;BME280;58897;51.960;5.582;2023-04-16T04:57:29;101960.88;;;9.20;100.00
12987;BME280;58897;51.960;5.582;2023-04-16T04:59:55;101970.91;;;9.18;100.00
12987;BME280;58897;51.960;5.582;2023-04-16T05:02:22;101966.63;;;9.15;100.00
12987;BME280;58897;51.960;5.582;2023-04-16T05:04:48;101966.59;;;9.26;100.00
12987;BME280;58897;51.960;5.582;2023-04-16T05:07:15;101970.16;;;9.27;100.00
12987;BME280;58897;51.960;5.582;2023-04-16T05:09:41;101962.31;;;9.24;100.00
12987;BME280;58897;51.960;5.582;2023-04-16T05:12:08;101974.38;;;9.20;100.00
12987;BME280;58897;51.960;5.582;2023-04-16T05:14:34;101974.09;;;9.23;100.00
12987;BME280;58897;51.960;5.582;2023-04-16T05:17:01;101969.97;;;9.08;100.00
12987;BME280;58897;51.960;5.582;2023-04-16T05:19:28;101964.06;;;9.14;100.00
12987;BME280;58897;51.960;5.582;2023-04-16T05:21:54;101965.16;;;9.22;100.00
12987;BME280;58897;51.960;5.582;2023-04-16T05:24:21;101969.19;;;9.28;100.00
12987;BME280;58897;51.960;5.582;2023-04-16T05:26:48;101958.75;;;9.35;100.00
12987;BME280;58897;51.960;5.582;2023-04-16T05:29:14;101967.56;;;9.25;100.00
12987;BME280;58897;51.960;5.582;2023-04-16T05:31:41;101970.66;;;9.21;100.00
12987;BME280;58897;51.960;5.582;2023-04-16T05:34:07;101971.75;;;9.29;100.00
12987;BME280;58897;51.960;5.582;2023-04-16T05:36:34;101971.59;;;9.31;100.00
12987;BME280;58897;51.960;5.582;2023-04-16T05:39:00;101978.47;;;9.35;100.00
12987;BME280;58897;51.960;5.582;2023-04-16T05:41:27;101971.88;;;9.28;100.00
12987;BME280;58897;51.960;5.582;2023-04-16T05:43:53;101978.47;;;9.35;100.00
12987;BME280;58897;51.960;5.582;2023-04-16T05:46:20;101981.81;;;9.27;100.00
12987;BME280;58897;51.960;5.582;2023-04-16T05:48:46;101979.44;;;9.34;100.00
12987;BME280;58897;51.960;5.582;2023-04-16T05:51:13;101976.41;;;9.27;100.00
12987;BME280;58897;51.960;5.582;2023-04-16T05:53:39;101979.88;;;9.18;100.00
12987;BME280;58897;51.960;5.582;2023-04-16T05:56:07;101991.25;;;9.33;100.00
12987;BME280;58897;51.960;5.582;2023-04-16T05:58:33;101985.09;;;9.31;100.00
12987;BME280;58897;51.960;5.582;2023-04-16T06:01:00;101985.63;;;9.25;100.00
12987;BME280;58897;51.960;5.582;2023-04-16T06:03:27;101993.47;;;9.28;100.00
12987;BME280;58897;51.960;5.582;2023-04-16T06:05:53;101999.03;;;9.36;100.00
12987;BME280;58897;51.960;5.582;2023-04-16T06:08:20;102000.94;;;9.24;100.00
12987;BME280;58897;51.960;5.582;2023-04-16T06:10:47;102003.84;;;9.32;100.00
12987;BME280;58897;51.960;5.582;2023-04-16T06:13:14;102004.25;;;9.28;100.00
12987;BME280;58897;51.960;5.582;2023-04-16T06:15:40;102002.53;;;9.16;100.00
12987;BME280;58897;51.960;5.582;2023-04-16T06:18:07;102001.03;;;9.23;100.00
12987;BME280;58897;51.960;5.582;2023-04-16T06:20:33;102006.56;;;9.32;100.00
12987;BME280;58897;51.960;5.582;2023-04-16T06:23:00;102008.38;;;9.32;100.00
12987;BME280;58897;51.960;5.582;2023-04-16T06:25:26;102001.97;;;9.44;100.00
12987;BME280;58897;51.960;5.582;2023-04-16T06:27:53;102003.44;;;9.48;100.00
12987;BME280;58897;51.960;5.582;2023-04-16T06:30:20;101999.13;;;9.57;100.00
12987;BME280;58897;51.960;5.582;2023-04-16T06:32:48;102002.19;;;9.52;100.00
12987;BME280;58897;51.960;5.582;2023-04-16T06:35:15;102004.16;;;9.50;100.00
12987;BME280;58897;51.960;5.582;2023-04-16T06:37:41;102007.78;;;9.60;100.00
12987;BME280;58897;51.960;5.582;2023-04-16T06:40:08;102015.34;;;9.46;100.00
12987;BME280;58897;51.960;5.582;2023-04-16T06:42:34;102011.00;;;9.54;100.00
12987;BME280;58897;51.960;5.582;2023-04-16T06:45:01;102013.06;;;9.62;100.00
12987;BME280;58897;51.960;5.582;2023-04-16T06:47:28;102018.47;;;9.62;100.00
12987;BME280;58897;51.960;5.582;2023-04-16T06:49:54;102017.78;;;9.49;100.00
12987;BME280;58897;51.960;5.582;2023-04-16T06:52:21;102019.59;;;9.59;100.00
12987;BME280;58897;51.960;5.582;2023-04-16T06:54:47;102022.19;;;9.50;100.00
12987;BME280;58897;51.960;5.582;2023-04-16T06:57:14;102028.50;;;9.60;100.00
12987;BME280;58897;51.960;5.582;2023-04-16T06:59:41;102027.03;;;9.67;100.00
12987;BME280;58897;51.960;5.582;2023-04-16T07:02:09;102027.75;;;9.69;100.00
12987;BME280;58897;51.960;5.582;2023-04-16T07:04:36;102037.91;;;9.76;100.00
12987;BME280;58897;51.960;5.582;2023-04-16T07:07:02;102036.97;;;9.66;100.00
12987;BME280;58897;51.960;5.582;2023-04-16T07:09:29;102048.72;;;9.65;100.00
12987;BME280;58897;51.960;5.582;2023-04-16T07:11:55;102043.25;;;9.56;100.00
12987;BME280;58897;51.960;5.582;2023-04-16T07:14:22;102043.88;;;9.59;100.00
12987;BME280;58897;51.960;5.582;2023-04-16T07:16:48;102048.47;;;9.68;100.00
12987;BME280;58897;51.960;5.582;2023-04-16T07:19:15;102051.31;;;9.67;100.00
12987;BME280;58897;51.960;5.582;2023-04-16T07:21:42;102060.88;;;9.60;100.00
12987;BME280;58897;51.960;5.582;2023-04-16T07:24:09;102058.59;;;9.44;100.00
12987;BME280;58897;51.960;5.582;2023-04-16T07:26:36;102063.22;;;9.64;100.00
12987;BME280;58897;51.960;5.582;2023-04-16T07:29:03;102058.56;;;9.66;100.00
12987;BME280;58897;51.960;5.582;2023-04-16T07:31:29;102066.91;;;9.52;100.00
12987;BME280;58897;51.960;5.582;2023-04-16T07:33:57;102062.88;;;9.58;100.00
12987;BME280;58897;51.960;5.582;2023-04-16T07:36:23;102062.53;;;9.51;100.00
12987;BME280;58897;51.960;5.582;2023-04-16T07:38:50;102064.19;;;9.63;100.00
12987;BME280;58897;51.960;5.582;2023-04-16T07:41:16;102068.63;;;9.64;100.00
12987;BME280;58897;51.960;5.582;2023-04-16T07:43:43;102070.28;;;9.76;100.00
12987;BME280;58897;51.960;5.582;2023-04-16T07:46:09;102081.41;;;9.83;100.00
12987;BME280;58897;51.960;5.582;2023-04-16T07:48:36;102086.81;;;9.83;100.00
12987;BME280;58897;51.960;5.582;2023-04-16T07:51:02;102085.56;;;9.87;100.00
12987;BME280;58897;51.960;5.582;2023-04-16T07:53:29;102081.53;;;9.81;100.00
12987;BME280;58897;51.960;5.582;2023-04-16T07:55:56;102087.09;;;9.80;100.00
12987;BME280;58897;51.960;5.582;2023-04-16T07:58:22;102085.13;;;9.71;100.00
12987;BME280;58897;51.960;5.582;2023-04-16T08:00:48;102090.63;;;9.80;100.00
12987;BME280;58897;51.960;5.582;2023-04-16T08:03:16;102087.66;;;9.83;100.00
12987;BME280;58897;51.960;5.582;2023-04-16T08:05:43;102082.38;;;9.93;100.00
12987;BME280;58897;51.960;5.582;2023-04-16T08:08:10;102094.75;;;9.96;100.00
12987;BME280;58897;51.960;5.582;2023-04-16T08:10:37;102098.94;;;9.88;100.00
12987;BME280;58897;51.960;5.582;2023-04-16T08:13:04;102099.47;;;9.82;100.00
12987;BME280;58897;51.960;5.582;2023-04-16T08:15:30;102108.25;;;9.96;100.00
12987;BME280;58897;51.960;5.582;2023-04-16T08:17:57;102111.59;;;9.88;100.00
12987;BME280;58897;51.960;5.582;2023-04-16T08:20:25;102109.09;;;9.96;100.00
12987;BME280;58897;51.960;5.582;2023-04-16T08:22:52;102113.28;;;9.89;100.00
12987;BME280;58897;51.960;5.582;2023-04-16T08:25:20;102114.28;;;9.88;100.00
12987;BME280;58897;51.960;5.582;2023-04-16T08:27:48;102112.34;;;10.11;100.00
12987;BME280;58897;51.960;5.582;2023-04-16T08:30:14;102113.56;;;10.18;100.00
12987;BME280;58897;51.960;5.582;2023-04-16T08:32:42;102109.91;;;10.08;100.00
12987;BME280;58897;51.960;5.582;2023-04-16T08:35:08;102113.78;;;10.26;100.00
12987;BME280;58897;51.960;5.582;2023-04-16T08:37:35;102110.16;;;10.36;100.00
12987;BME280;58897;51.960;5.582;2023-04-16T08:40:02;102112.56;;;10.50;100.00
12987;BME280;58897;51.960;5.582;2023-04-16T08:42:34;102122.34;;;10.51;100.00
12987;BME280;58897;51.960;5.582;2023-04-16T08:45:07;102116.53;;;10.35;100.00
12987;BME280;58897;51.960;5.582;2023-04-16T08:47:35;102120.00;;;10.37;100.00
12987;BME280;58897;51.960;5.582;2023-04-16T08:50:03;102126.31;;;10.27;100.00
12987;BME280;58897;51.960;5.582;2023-04-16T08:52:31;102131.00;;;10.66;100.00
12987;BME280;58897;51.960;5.582;2023-04-16T08:55:07;102129.47;;;10.52;100.00
12987;BME280;58897;51.960;5.582;2023-04-16T08:57:38;102132.69;;;10.46;100.00
12987;BME280;58897;51.960;5.582;2023-04-16T09:00:10;102128.00;;;10.48;100.00
12987;BME280;58897;51.960;5.582;2023-04-16T09:02:37;102140.09;;;10.44;100.00
12987;BME280;58897;51.960;5.582;2023-04-16T09:05:06;102142.19;;;10.41;100.00
12987;BME280;58897;51.960;5.582;2023-04-16T09:07:33;102142.53;;;10.47;100.00
12987;BME280;58897;51.960;5.582;2023-04-16T09:10:00;102138.81;;;10.48;100.00
12987;BME280;58897;51.960;5.582;2023-04-16T09:12:28;102132.28;;;10.51;100.00
12987;BME280;58897;51.960;5.582;2023-04-16T09:14:55;102141.47;;;10.39;100.00
12987;BME280;58897;51.960;5.582;2023-04-16T09:17:22;102147.69;;;10.50;100.00
12987;BME280;58897;51.960;5.582;2023-04-16T09:19:48;102146.41;;;10.54;100.00
12987;BME280;58897;51.960;5.582;2023-04-16T09:22:15;102142.13;;;10.52;100.00
12987;BME280;58897;51.960;5.582;2023-04-16T09:24:42;102140.53;;;10.49;100.00
12987;BME280;58897;51.960;5.582;2023-04-16T09:27:09;102142.53;;;10.68;100.00
12987;BME280;58897;51.960;5.582;2023-04-16T09:29:40;102145.78;;;10.72;100.00
12987;BME280;58897;51.960;5.582;2023-04-16T09:32:09;102140.06;;;10.86;100.00
12987;BME280;58897;51.960;5.582;2023-04-16T09:34:59;102137.31;;;11.06;100.00
12987;BME280;58897;51.960;5.582;2023-04-16T09:37:29;102147.28;;;11.06;100.00
12987;BME280;58897;51.960;5.582;2023-04-16T09:40:03;102152.31;;;11.10;100.00
12987;BME280;58897;51.960;5.582;2023-04-16T09:42:32;102144.25;;;11.30;100.00
12987;BME280;58897;51.960;5.582;2023-04-16T09:44:59;102142.59;;;11.38;100.00
12987;BME280;58897;51.960;5.582;2023-04-16T09:47:44;102140.59;;;11.50;100.00
12987;BME280;58897;51.960;5.582;2023-04-16T09:50:16;102141.78;;;11.57;100.00
12987;BME280;58897;51.960;5.582;2023-04-16T09:52:47;102143.03;;;11.53;100.00
12987;BME280;58897;51.960;5.582;2023-04-16T09:55:14;102147.69;;;11.81;100.00
12987;BME280;58897;51.960;5.582;2023-04-16T09:57:40;102144.91;;;12.11;100.00
12987;BME280;58897;51.960;5.582;2023-04-16T10:00:08;102138.50;;;12.22;100.00
12987;BME280;58897;51.960;5.582;2023-04-16T10:02:38;102138.06;;;12.46;100.00
12987;BME280;58897;51.960;5.582;2023-04-16T10:05:07;102132.75;;;12.44;100.00
12987;BME280;58897;51.960;5.582;2023-04-16T10:07:35;102131.34;;;12.21;100.00
12987;BME280;58897;51.960;5.582;2023-04-16T10:10:03;102135.31;;;12.36;100.00
12987;BME280;58897;51.960;5.582;2023-04-16T10:12:30;102140.47;;;12.10;100.00
12987;BME280;58897;51.960;5.582;2023-04-16T10:14:58;102144.91;;;12.11;100.00
12987;BME280;58897;51.960;5.582;2023-04-16T10:17:25;102149.03;;;12.15;100.00
12987;BME280;58897;51.960;5.582;2023-04-16T10:19:56;102144.19;;;12.09;100.00
12987;BME280;58897;51.960;5.582;2023-04-16T10:22:24;102144.91;;;12.11;100.00
12987;BME280;58897;51.960;5.582;2023-04-16T10:24:51;102139.91;;;12.26;100.00
12987;BME280;58897;51.960;5.582;2023-04-16T10:27:19;102146.72;;;12.49;100.00
12987;BME280;58897;51.960;5.582;2023-04-16T10:29:45;102140.63;;;12.18;100.00
12987;BME280;58897;51.960;5.582;2023-04-16T10:32:13;102146.31;;;12.06;100.00
12987;BME280;58897;51.960;5.582;2023-04-16T10:34:40;102151.72;;;12.15;100.00
12987;BME280;58897;51.960;5.582;2023-04-16T10:37:07;102148.47;;;12.21;100.00
12987;BME280;58897;51.960;5.582;2023-04-16T10:39:34;102149.63;;;12.38;100.00
12987;BME280;58897;51.960;5.582;2023-04-16T10:42:11;102139.91;;;12.35;100.00
12987;BME280;58897;51.960;5.582;2023-04-16T10:44:41;102147.47;;;12.32;100.00
12987;BME280;58897;51.960;5.582;2023-04-16T10:47:11;102143.91;;;12.22;100.00
12987;BME280;58897;51.960;5.582;2023-04-16T10:49:39;102152.00;;;12.41;100.00
12987;BME280;58897;51.960;5.582;2023-04-16T10:52:12;102152.56;;;12.54;100.00
12987;BME280;58897;51.960;5.582;2023-04-16T10:54:40;102143.72;;;12.52;100.00
12987;BME280;58897;51.960;5.582;2023-04-16T10:57:14;102149.31;;;12.31;100.00
12987;BME280;58897;51.960;5.582;2023-04-16T10:59:42;102150.88;;;12.53;100.00
12987;BME280;58897;51.960;5.582;2023-04-16T11:02:13;102138.47;;;12.51;100.00
12987;BME280;58897;51.960;5.582;2023-04-16T11:04:42;102153.00;;;12.50;100.00
12987;BME280;58897;51.960;5.582;2023-04-16T11:09:59;102145.41;;;12.82;100.00
12987;BME280;58897;51.960;5.582;2023-04-16T11:12:36;102144.66;;;12.89;100.00
12987;BME280;58897;51.960;5.582;2023-04-16T11:15:07;102151.00;;;12.61;100.00
12987;BME280;58897;51.960;5.582;2023-04-16T11:17:39;102145.19;;;12.37;100.00
12987;BME280;58897;51.960;5.582;2023-04-16T11:20:08;102149.59;;;12.28;100.00
12987;BME280;58897;51.960;5.582;2023-04-16T11:22:49;102158.16;;;12.33;100.00
12987;BME280;58897;51.960;5.582;2023-04-16T11:27:50;102152.31;;;12.38;100.00
12987;BME280;58897;51.960;5.582;2023-04-16T11:30:18;102152.16;;;12.20;100.00
12987;BME280;58897;51.960;5.582;2023-04-16T11:32:53;102156.72;;;12.39;100.00
12987;BME280;58897;51.960;5.582;2023-04-16T11:35:19;102160.28;;;12.20;100.00
12987;BME280;58897;51.960;5.582;2023-04-16T11:37:46;102156.59;;;12.21;100.00
12987;BME280;58897;51.960;5.582;2023-04-16T11:40:16;102156.75;;;12.20;100.00
12987;BME280;58897;51.960;5.582;2023-04-16T11:42:43;102162.28;;;12.28;100.00
12987;BME280;58897;51.960;5.582;2023-04-16T11:45:10;102159.44;;;12.10;100.00
12987;BME280;58897;51.960;5.582;2023-04-16T11:50:29;102158.56;;;12.10;100.00
12987;BME280;58897;51.960;5.582;2023-04-16T11:53:02;102159.72;;;12.26;100.00
12987;BME280;58897;51.960;5.582;2023-04-16T11:55:29;102158.44;;;12.40;100.00
12987;BME280;58897;51.960;5.582;2023-04-16T11:57:56;102154.75;;;12.22;100.00
12987;BME280;58897;51.960;5.582;2023-04-16T12:00:23;102157.88;;;12.36;100.00
12987;BME280;58897;51.960;5.582;2023-04-16T12:02:52;102155.69;;;12.59;100.00
12987;BME280;58897;51.960;5.582;2023-04-16T12:07:54;102171.28;;;12.48;100.00
12987;BME280;58897;51.960;5.582;2023-04-16T12:10:20;102172.84;;;12.50;100.00
12987;BME280;58897;51.960;5.582;2023-04-16T12:12:47;102167.16;;;12.15;100.00
12987;BME280;58897;51.960;5.582;2023-04-16T12:15:13;102166.84;;;12.18;100.00
12987;BME280;58897;51.960;5.582;2023-04-16T12:17:40;102180.41;;;12.37;100.00
12987;BME280;58897;51.960;5.582;2023-04-16T12:20:11;102173.84;;;12.49;100.00
12987;BME280;58897;51.960;5.582;2023-04-16T12:22:43;102176.53;;;12.20;100.00
12987;BME280;58897;51.960;5.582;2023-04-16T12:25:11;102177.84;;;12.26;100.00
12987;BME280;58897;51.960;5.582;2023-04-16T12:27:45;102181.41;;;12.26;100.00
12987;BME280;58897;51.960;5.582;2023-04-16T12:30:16;102179.41;;;12.28;100.00
12987;BME280;58897;51.960;5.582;2023-04-16T12:32:47;102183.84;;;12.49;100.00
12987;BME280;58897;51.960;5.582;2023-04-16T12:35:31;102186.13;;;12.53;100.00
12987;BME280;58897;51.960;5.582;2023-04-16T12:37:59;102176.94;;;12.73;100.00
12987;BME280;58897;51.960;5.582;2023-04-16T12:40:26;102179.13;;;12.60;100.00
12987;BME280;58897;51.960;5.582;2023-04-16T12:42:52;102186.25;;;12.52;100.00
12987;BME280;58897;51.960;5.582;2023-04-16T12:45:21;102185.09;;;12.73;100.00
12987;BME280;58897;51.960;5.582;2023-04-16T12:47:48;102184.06;;;12.84;100.00
12987;BME280;58897;51.960;5.582;2023-04-16T12:50:16;102181.69;;;12.62;100.00
12987;BME280;58897;51.960;5.582;2023-04-16T12:52:42;102179.97;;;12.80;100.00
12987;BME280;58897;51.960;5.582;2023-04-16T12:55:09;102176.25;;;13.27;100.00
12987;BME280;58897;51.960;5.582;2023-04-16T12:57:35;102183.53;;;13.36;100.00
12987;BME280;58897;51.960;5.582;2023-04-16T13:00:02;102183.22;;;13.39;100.00